Time;durP1;ratioP1;P1;durP2;ratioP2;P2;SDS_P1;SDS_P2;PMS_P1;PMS_P2;Temp;Humidity;BMP_temperature;BMP_pressure;BME280_temperature;BME280_humidity;BME280_pressure;Samples;Min_cycle;Max_cycle;Signal;HPM_P1;HPM_P2
2021/11/03 00:01:01;;;;;;;5.77;3.27;;;;;;;10.31;60.86;96638.06;8344044;28;20616;-65
2021/11/03 00:05:06;;;;;;;4.37;2.47;;;;;;;10.33;60.68;96637.03;8349863;28;20228;-64
2021/11/03 00:09:09;;;;;;;3.07;2.20;;;;;;;10.24;60.72;96634.16;8349656;28;20565;-64
2021/11/03 00:13:14;;;;;;;2.60;2.37;;;;;;;9.95;61.66;96635.09;8350401;28;20232;-64
2021/11/03 00:17:17;;;;;;;4.50;2.23;;;;;;;10.31;60.25;96631.13;8349948;28;20234;-65
2021/11/03 00:21:21;;;;;;;2.70;2.50;;;;;;;10.25;61.03;96620.31;8350110;28;20274;-64
2021/11/03 00:25:27;;;;;;;3.97;2.67;;;;;;;9.90;61.80;96611.28;8350002;28;20538;-64
2021/11/03 00:29:31;;;;;;;2.70;2.50;;;;;;;10.50;59.53;96619.59;8349982;28;20243;-63
2021/11/03 00:33:34;;;;;;;2.33;2.13;;;;;;;10.59;59.22;96629.34;8349707;28;20232;-64
2021/11/03 00:37:37;;;;;;;2.47;2.27;;;;;;;10.54;59.32;96639.16;8349767;28;20235;-64
2021/11/03 00:41:40;;;;;;;3.17;2.50;;;;;;;10.59;59.32;96657.00;8349443;28;20425;-64
2021/11/03 00:45:45;;;;;;;3.60;3.10;;;;;;;10.58;59.33;96656.13;8349541;28;20232;-63
2021/11/03 00:49:48;;;;;;;3.17;2.53;;;;;;;10.63;59.37;96667.03;8349131;28;20235;-64
2021/11/03 00:53:51;;;;;;;5.33;3.27;;;;;;;10.65;58.93;96660.00;8349094;28;20240;-64
2021/11/03 00:57:53;;;;;;;3.30;2.77;;;;;;;10.48;59.85;96652.50;8348211;28;20485;-65
2021/11/03 01:01:58;;;;;;;3.27;2.90;;;;;;;10.47;59.58;96663.78;8348826;28;20239;-65
2021/11/03 01:06:01;;;;;;;3.67;2.97;;;;;;;10.46;59.84;96652.59;8348773;28;20539;-64
2021/11/03 01:10:05;;;;;;;3.20;2.90;;;;;;;10.40;60.04;96650.41;8348726;28;20538;-65
2021/11/03 01:14:10;;;;;;;3.97;3.10;;;;;;;10.03;61.47;96647.53;8348692;28;20547;-64
2021/11/03 01:18:14;;;;;;;5.50;2.73;;;;;;;10.45;59.74;96669.06;8348162;28;20231;-65
2021/11/03 01:22:17;;;;;;;4.17;2.77;;;;;;;10.34;60.18;96666.34;8348214;28;20238;-65
2021/11/03 01:26:20;;;;;;;4.70;3.23;;;;;;;10.14;60.70;96660.63;8347765;28;20240;-64
2021/11/03 01:30:25;;;;;;;3.60;3.10;;;;;;;9.86;61.95;96666.72;8348676;28;20296;-64
2021/11/03 01:34:29;;;;;;;3.00;2.63;;;;;;;9.69;62.32;96659.16;8348429;28;20231;-64
2021/11/03 01:38:32;;;;;;;4.83;2.90;;;;;;;9.74;61.73;96652.78;8347738;28;20243;-64
2021/11/03 01:42:36;;;;;;;3.77;3.30;;;;;;;9.81;60.72;96642.91;8348408;28;20551;-64
2021/11/03 01:46:40;;;;;;;6.57;3.23;;;;;;;9.26;62.78;96639.34;8348098;28;20243;-64
2021/11/03 01:50:49;;;;;;;3.77;3.10;;;;;;;9.73;61.40;96633.03;8347732;28;20436;-64
2021/11/03 01:54:54;;;;;;;4.97;3.23;;;;;;;9.47;62.08;96633.81;8347549;28;20247;-64
2021/11/03 01:59:02;;;;;;;2.77;2.47;;;;;;;9.27;61.87;96622.09;8349644;28;20234;-65
2021/11/03 02:03:09;;;;;;;3.57;2.63;;;;;;;9.54;61.26;96619.59;8365959;28;20247;-64
2021/11/03 02:07:17;;;;;;;3.17;2.63;;;;;;;9.57;61.21;96612.44;8346899;28;20232;-65
2021/11/03 02:11:22;;;;;;;4.00;3.03;;;;;;;9.27;61.30;96609.16;8352794;28;20433;-64
2021/11/03 02:15:25;;;;;;;3.27;2.70;;;;;;;9.29;61.47;96607.31;8354253;28;20546;-64
2021/11/03 02:19:30;;;;;;;3.83;2.90;;;;;;;9.27;61.36;96604.84;8354000;28;20542;-64
2021/11/03 02:23:39;;;;;;;3.23;2.93;;;;;;;9.29;61.19;96597.84;8353687;28;20236;-64
2021/11/03 02:27:46;;;;;;;3.20;2.90;;;;;;;9.34;60.69;96584.63;8353722;28;20566;-64
2021/11/03 02:31:52;;;;;;;3.20;2.90;;;;;;;9.57;59.79;96572.88;8353739;28;20243;-66
2021/11/03 02:35:59;;;;;;;3.63;3.10;;;;;;;9.14;61.79;96568.59;8353962;28;20515;-65
2021/11/03 02:40:14;;;;;;;4.57;2.90;;;;;;;8.95;62.53;96580.97;8353568;28;20307;-64
2021/11/03 02:44:20;;;;;;;3.70;3.20;;;;;;;9.43;60.78;96583.25;8352934;28;20228;-64
2021/11/03 02:48:25;;;;;;;3.83;3.53;;;;;;;9.35;60.77;96591.47;8353381;28;20254;-64
2021/11/03 02:52:29;;;;;;;3.10;2.90;;;;;;;9.65;59.41;96598.22;8353430;28;20244;-64
2021/11/03 02:56:34;;;;;;;3.77;3.47;;;;;;;9.29;60.58;96589.25;8353067;28;20240;-64
2021/11/03 03:00:38;;;;;;;4.17;3.50;;;;;;;9.29;60.43;96569.41;8352569;28;20236;-64
2021/11/03 03:04:44;;;;;;;3.50;3.20;;;;;;;9.32;60.58;96558.88;8352726;28;20246;-64
2021/11/03 03:08:48;;;;;;;3.70;3.40;;;;;;;9.23;60.73;96558.63;8352550;28;20240;-64
2021/11/03 03:12:51;;;;;;;3.70;3.30;;;;;;;9.65;59.05;96551.69;8352192;28;20243;-64
2021/11/03 03:16:56;;;;;;;4.60;4.20;;;;;;;8.92;61.91;96539.84;8352138;28;20232;-64
2021/11/03 03:20:59;;;;;;;4.53;4.17;;;;;;;8.80;62.30;96544.81;8351389;28;20240;-64
2021/11/03 03:25:15;;;;;;;4.90;4.50;;;;;;;8.87;61.46;96552.19;8351377;28;20423;-64
2021/11/03 03:29:18;;;;;;;6.03;4.43;;;;;;;8.61;62.48;96550.22;8351903;28;20240;-64
2021/11/03 03:33:23;;;;;;;5.50;4.93;;;;;;;8.30;63.25;96556.34;8351653;28;20236;-64
2021/11/03 03:37:26;;;;;;;5.47;4.97;;;;;;;8.51;62.58;96553.44;8351817;28;20228;-64
2021/11/03 03:41:29;;;;;;;5.23;4.83;;;;;;;8.71;62.60;96560.84;8351397;28;20235;-64
2021/11/03 03:45:32;;;;;;;6.10;5.50;;;;;;;8.86;61.61;96560.84;8351393;28;20239;-64
2021/11/03 03:49:37;;;;;;;6.40;5.80;;;;;;;8.68;62.64;96560.19;8351356;28;20244;-64
2021/11/03 03:53:40;;;;;;;6.10;5.50;;;;;;;9.01;61.22;96557.34;8351329;28;20242;-64
2021/11/03 03:57:45;;;;;;;5.93;5.43;;;;;;;9.09;61.06;96560.28;8351178;28;20244;-65
2021/11/03 04:01:49;;;;;;;6.97;5.67;;;;;;;8.74;62.74;96563.25;8350764;28;20251;-64
2021/11/03 04:05:56;;;;;;;7.20;6.50;;;;;;;8.97;61.50;96561.88;8350676;28;20239;-64
2021/11/03 04:09:59;;;;;;;7.97;7.00;;;;;;;8.55;63.68;96563.50;8350743;28;20243;-64
2021/11/03 04:14:02;;;;;;;8.90;8.00;;;;;;;8.50;62.68;96552.59;8350925;28;20412;-64
2021/11/03 04:18:05;;;;;;;8.07;7.37;;;;;;;8.39;63.42;96554.94;8350503;28;20432;-64
2021/11/03 04:22:09;;;;;;;7.20;6.60;;;;;;;8.72;62.34;96559.06;8350178;28;20536;-64
2021/11/03 04:26:21;;;;;;;7.07;6.47;;;;;;;8.75;62.06;96553.75;8349901;28;20543;-65
2021/11/03 04:30:24;;;;;;;7.17;6.57;;;;;;;8.72;63.02;96553.91;8350412;28;20240;-64
2021/11/03 04:34:27;;;;;;;8.30;7.50;;;;;;;8.94;62.20;96554.28;8348935;28;20239;-64
2021/11/03 04:38:32;;;;;;;8.50;7.80;;;;;;;8.85;62.33;96547.09;8349452;28;20247;-64
2021/11/03 04:42:35;;;;;;;8.53;7.47;;;;;;;9.02;62.27;96548.66;8349597;28;20251;-64
2021/11/03 04:46:37;;;;;;;7.87;7.17;;;;;;;9.26;60.82;96553.28;8349487;28;20543;-64
2021/11/03 04:50:41;;;;;;;8.17;7.43;;;;;;;8.93;61.81;96544.06;8349447;28;20243;-64
2021/11/03 04:54:45;;;;;;;9.90;8.13;;;;;;;9.10;61.66;96538.72;8349012;28;20236;-64
2021/11/03 04:58:49;;;;;;;8.73;7.93;;;;;;;9.25;60.70;96541.28;8349061;28;20420;-64
2021/11/03 05:02:52;;;;;;;9.10;8.07;;;;;;;9.53;60.34;96543.78;8348773;28;20577;-64
2021/11/03 05:06:55;;;;;;;10.20;9.20;;;;;;;9.48;60.10;96542.41;8348640;28;20263;-64
2021/11/03 05:10:59;;;;;;;12.03;9.10;;;;;;;9.36;60.69;96538.84;8348739;28;20254;-64
2021/11/03 05:15:02;;;;;;;9.27;8.40;;;;;;;9.43;60.58;96544.50;8348589;28;20539;-64
2021/11/03 05:19:05;;;;;;;11.33;9.60;;;;;;;9.39;60.32;96543.84;8348525;28;20427;-64
2021/11/03 05:23:08;;;;;;;9.77;8.77;;;;;;;9.68;60.06;96548.94;8348249;28;20409;-64
2021/11/03 05:27:13;;;;;;;10.30;9.30;;;;;;;9.05;62.53;96539.94;8348218;28;20232;-64
2021/11/03 05:31:17;;;;;;;10.50;9.43;;;;;;;9.22;61.45;96538.91;8340079;28;20228;-64
2021/11/03 05:35:20;;;;;;;11.43;10.23;;;;;;;9.26;61.43;96536.00;8348064;28;20239;-64
2021/11/03 05:39:23;;;;;;;11.80;10.70;;;;;;;9.00;62.65;96535.88;8347772;28;20246;-64
2021/11/03 05:43:27;;;;;;;11.23;9.57;;;;;;;9.34;61.33;96520.84;8347469;28;20523;-64
2021/11/03 05:47:30;;;;;;;10.60;9.70;;;;;;;8.91;62.92;96533.84;8347835;28;20542;-64
2021/11/03 05:51:33;;;;;;;11.53;10.33;;;;;;;9.06;62.54;96533.81;8347499;28;20551;-64
2021/11/03 05:55:41;;;;;;;13.00;11.70;;;;;;;8.64;63.73;96532.91;8347377;28;20232;-64
2021/11/03 05:59:45;;;;;;;12.53;11.33;;;;;;;8.86;63.11;96524.72;8347254;28;20243;-64
2021/11/03 06:03:48;;;;;;;11.47;10.37;;;;;;;9.11;62.45;96517.13;8347323;28;20247;-64
2021/11/03 06:07:51;;;;;;;11.73;9.80;;;;;;;9.17;62.34;96508.16;8347503;28;20259;-64
2021/11/03 06:11:56;;;;;;;11.43;10.30;;;;;;;9.06;62.61;96518.31;8347268;28;20431;-64
2021/11/03 06:16:01;;;;;;;11.77;10.53;;;;;;;8.94;62.96;96518.16;8347168;28;20243;-64
2021/11/03 06:20:04;;;;;;;12.27;10.63;;;;;;;8.70;64.07;96501.56;8346998;28;20522;-64
2021/11/03 06:24:08;;;;;;;13.73;11.53;;;;;;;8.76;63.62;96491.72;8346903;28;20231;-64
2021/11/03 06:28:11;;;;;;;12.90;11.60;;;;;;;8.67;63.83;96489.69;8347040;28;20239;-64
2021/11/03 06:32:15;;;;;;;11.57;9.93;;;;;;;8.99;63.03;96492.88;8346552;28;20641;-64
2021/11/03 06:36:18;;;;;;;16.10;12.87;;;;;;;8.89;63.43;96502.13;8346303;28;20535;-64
2021/11/03 06:40:24;;;;;;;12.90;11.23;;;;;;;9.17;62.12;96518.50;8345885;28;20236;-64
2021/11/03 06:44:27;;;;;;;12.47;11.23;;;;;;;9.35;62.03;96514.78;8343728;28;20228;-64
2021/11/03 06:48:31;;;;;;;12.20;10.93;;;;;;;9.09;63.00;96511.22;8346395;28;20240;-64
2021/11/03 06:52:37;;;;;;;15.20;12.43;;;;;;;9.07;62.56;96504.50;8346180;28;20247;-64
2021/11/03 06:56:42;;;;;;;14.53;12.30;;;;;;;9.14;62.71;96496.28;8347717;28;20498;-64
2021/11/03 07:00:49;;;;;;;15.23;11.87;;;;;;;9.06;62.84;96483.00;8351437;28;20247;-65
2021/11/03 07:04:53;;;;;;;13.43;11.83;;;;;;;9.02;63.39;96470.38;8347262;28;20239;-64
2021/11/03 07:08:57;;;;;;;15.67;10.83;;;;;;;8.92;64.26;96475.28;8351928;28;20228;-64
2021/11/03 07:13:01;;;;;;;11.63;9.80;;;;;;;8.95;63.43;96470.78;8351654;28;20248;-64
2021/11/03 07:17:04;;;;;;;11.80;10.60;;;;;;;8.82;64.57;96477.59;8351546;28;20232;-64
2021/11/03 07:21:08;;;;;;;10.90;9.80;;;;;;;9.28;63.28;96468.75;8348711;28;20239;-64
2021/11/03 07:25:13;;;;;;;9.80;8.87;;;;;;;9.15;62.91;96461.75;8351366;28;20282;-66
2021/11/03 07:29:16;;;;;;;10.03;9.03;;;;;;;8.66;64.48;96469.13;8351082;28;20228;-64
2021/11/03 07:33:19;;;;;;;9.07;8.10;;;;;;;8.90;64.78;96465.03;8350331;28;20228;-65
2021/11/03 07:37:24;;;;;;;9.33;8.43;;;;;;;9.50;61.53;96481.13;8351011;28;20235;-64
2021/11/03 07:41:27;;;;;;;9.93;8.40;;;;;;;9.25;63.33;96487.03;8350634;28;20295;-64
2021/11/03 07:45:34;;;;;;;8.70;7.83;;;;;;;9.82;61.23;96492.00;8345488;28;20307;-65
2021/11/03 07:49:39;;;;;;;8.93;8.03;;;;;;;10.02;60.03;96492.47;8350360;28;20243;-64
2021/11/03 07:53:45;;;;;;;8.10;7.30;;;;;;;10.25;59.26;96488.38;8349971;28;20243;-64
2021/11/03 07:57:48;;;;;;;7.57;6.73;;;;;;;10.61;58.63;96481.69;8349755;28;20243;-64
2021/11/03 08:01:52;;;;;;;8.47;7.50;;;;;;;10.43;59.04;96484.56;8347103;28;20232;-64
2021/11/03 08:05:56;;;;;;;8.40;7.50;;;;;;;10.28;59.07;96475.22;8349680;28;20236;-64
2021/11/03 08:10:00;;;;;;;7.90;7.10;;;;;;;9.64;60.96;96462.19;8349387;28;20228;-64
2021/11/03 08:14:03;;;;;;;7.60;6.90;;;;;;;9.93;60.85;96452.53;8349445;28;20232;-63
2021/11/03 08:18:06;;;;;;;7.00;6.30;;;;;;;11.18;57.61;96457.84;8349058;28;20228;-64
2021/11/03 08:22:10;;;;;;;7.50;6.80;;;;;;;12.22;55.03;96448.63;8349214;28;20274;-64
2021/11/03 08:26:14;;;;;;;7.13;6.50;;;;;;;12.46;53.65;96438.16;8348620;28;20220;-64
2021/11/03 08:30:18;;;;;;;7.57;6.80;;;;;;;12.24;54.20;96439.78;8349077;28;20224;-65
2021/11/03 08:34:21;;;;;;;7.10;6.00;;;;;;;13.53;51.99;96434.13;8349790;28;20240;-64
2021/11/03 08:38:25;;;;;;;6.40;5.80;;;;;;;13.11;50.92;96439.19;8349880;28;20234;-64
2021/11/03 08:42:30;;;;;;;7.33;6.20;;;;;;;12.18;52.95;96450.59;8349760;28;20240;-64
2021/11/03 08:46:35;;;;;;;8.50;6.23;;;;;;;12.20;52.73;96430.56;8349787;28;20427;-64
2021/11/03 08:50:42;;;;;;;6.30;5.60;;;;;;;11.71;54.46;96429.00;8349463;28;20238;-64
2021/11/03 08:54:46;;;;;;;6.43;5.57;;;;;;;13.04;51.74;96432.81;8348906;28;20236;-64
2021/11/03 08:58:58;;;;;;;6.70;6.00;;;;;;;13.12;51.38;96438.25;8349148;28;20232;-66
2021/11/03 09:03:01;;;;;;;8.20;5.83;;;;;;;13.29;50.59;96435.13;8349078;28;20240;-65
2021/11/03 09:07:08;;;;;;;7.53;5.83;;;;;;;12.78;51.81;96420.09;8349212;28;20550;-65
2021/11/03 09:11:11;;;;;;;6.43;5.80;;;;;;;12.01;54.23;96425.09;8348764;28;20243;-64
2021/11/03 09:15:16;;;;;;;7.13;5.93;;;;;;;11.87;54.99;96432.09;8348261;28;20441;-65
2021/11/03 09:19:20;;;;;;;7.47;5.90;;;;;;;11.70;55.32;96440.31;8347698;28;20232;-65
2021/11/03 09:23:24;;;;;;;6.17;5.53;;;;;;;12.15;54.74;96442.22;8348108;28;20247;-64
2021/11/03 09:27:27;;;;;;;5.80;5.23;;;;;;;12.07;54.47;96432.41;8348074;28;20238;-64
2021/11/03 09:31:31;;;;;;;6.13;5.53;;;;;;;12.14;55.04;96441.41;8346032;28;20232;-64
2021/11/03 09:35:36;;;;;;;6.40;5.77;;;;;;;11.49;56.26;96450.47;8346659;28;20294;-64
2021/11/03 09:39:40;;;;;;;6.80;5.37;;;;;;;11.42;56.06;96442.28;8346277;28;20232;-64
2021/11/03 09:43:47;;;;;;;6.00;5.40;;;;;;;11.82;55.69;96418.66;8346512;28;20242;-64
2021/11/03 09:48:12;;;;;;;8.40;6.20;;;;;;;11.84;56.22;96426.31;8344971;28;20294;-64
2021/11/03 09:52:17;;;;;;;6.83;5.67;;;;;;;12.15;56.05;96408.50;8345237;28;20231;-64
2021/11/03 09:56:23;;;;;;;9.53;6.23;;;;;;;12.02;55.51;96398.22;8346055;28;20287;-65
2021/11/03 10:00:29;;;;;;;6.63;6.03;;;;;;;11.63;56.39;96393.28;8346965;28;20240;-65
2021/11/03 10:05:10;;;;;;;7.40;6.00;;;;;;;11.73;56.30;96393.41;8346884;28;20961;-65
2021/11/03 10:09:18;;;;;;;7.63;6.03;;;;;;;11.63;57.30;96397.59;8302898;28;20229;-65
2021/11/03 10:13:24;;;;;;;6.50;5.90;;;;;;;11.30;57.56;96410.31;8312695;28;20420;-65
2021/11/03 10:17:29;;;;;;;6.40;5.80;;;;;;;11.42;58.12;96397.41;8346370;28;20251;-65
2021/11/03 10:21:41;;;;;;;6.10;5.60;;;;;;;11.39;57.77;96379.50;8346242;28;20244;-65
2021/11/03 10:25:48;;;;;;;6.37;5.73;;;;;;;11.34;58.69;96374.63;8344354;28;20247;-65
2021/11/03 10:29:53;;;;;;;8.03;5.57;;;;;;;11.48;58.54;96381.41;8347074;28;20228;-65
2021/11/03 10:34:03;;;;;;;6.40;5.80;;;;;;;11.78;57.51;96373.13;8353796;28;20604;-65
2021/11/03 10:38:13;;;;;;;6.43;5.90;;;;;;;11.99;57.69;96364.72;8353545;28;20408;-65
2021/11/03 10:42:19;;;;;;;8.67;5.93;;;;;;;12.07;56.82;96380.53;8352713;28;20416;-65
2021/11/03 10:46:26;;;;;;;5.73;5.23;;;;;;;12.01;56.96;96388.78;8353039;28;20236;-65
2021/11/03 10:50:39;;;;;;;6.80;6.10;;;;;;;12.16;57.18;96364.25;8352897;28;20240;-65
2021/11/03 10:54:47;;;;;;;6.40;5.80;;;;;;;12.10;56.91;96369.94;8352751;28;20241;-64
2021/11/03 10:58:59;;;;;;;6.00;5.50;;;;;;;11.89;58.00;96357.63;8352371;28;20242;-65
2021/11/03 11:03:05;;;;;;;7.47;4.30;;;;;;;12.82;62.64;96358.34;8352305;28;20236;-66
2021/11/03 11:07:21;;;;;;;6.33;4.43;;;;;;;14.07;60.43;96346.47;8352420;28;20577;-69
2021/11/03 11:11:30;;;;;;;4.70;4.30;;;;;;;14.23;54.79;96322.56;8352088;28;20224;-69
2021/11/03 11:15:39;;;;;;;5.37;3.67;;;;;;;14.54;53.35;96317.31;8351678;28;20238;-69
2021/11/03 11:19:51;;;;;;;5.67;5.17;;;;;;;14.12;51.48;96300.03;8348103;28;20542;-65
2021/11/03 11:23:57;;;;;;;7.13;5.43;;;;;;;13.52;53.83;96318.06;8351475;28;20243;-65
2021/11/03 11:28:13;;;;;;;5.60;5.10;;;;;;;12.85;54.66;96299.19;8352134;28;20420;-64
2021/11/03 11:32:26;;;;;;;14.90;5.50;;;;;;;12.84;55.09;96307.91;8351379;28;20242;-64
2021/11/03 11:36:37;;;;;;;6.23;5.50;;;;;;;12.43;55.52;96306.81;8350314;28;20236;-65
2021/11/03 11:40:48;;;;;;;6.00;5.27;;;;;;;12.87;54.82;96314.63;8351571;28;20236;-65
2021/11/03 11:44:57;;;;;;;8.53;5.07;;;;;;;13.00;55.04;96317.06;8350922;28;20232;-65
2021/11/03 11:49:05;;;;;;;7.93;6.20;;;;;;;12.98;55.45;96311.16;8351508;28;20236;-65
2021/11/03 11:53:28;;;;;;;5.83;5.23;;;;;;;12.91;55.30;96303.88;8351124;28;20554;-65
2021/11/03 11:57:31;;;;;;;9.73;5.43;;;;;;;13.03;55.34;96301.25;8350944;28;20543;-65
2021/11/03 12:01:58;;;;;;;9.00;5.53;;;;;;;13.00;55.52;96298.88;8351053;28;20240;-65
2021/11/03 12:06:08;;;;;;;10.20;5.27;;;;;;;13.20;55.59;96295.50;8350669;28;20240;-66
2021/11/03 12:10:30;;;;;;;5.63;5.13;;;;;;;13.20;55.57;96285.09;8350602;28;20236;-65
2021/11/03 12:14:40;;;;;;;5.87;5.37;;;;;;;12.91;56.04;96282.28;8352272;28;20223;-65
2021/11/03 12:18:49;;;;;;;5.43;4.93;;;;;;;13.00;55.95;96268.50;8349125;28;20232;-66
2021/11/03 12:22:54;;;;;;;7.10;5.13;;;;;;;13.18;55.93;96271.41;8348269;28;20240;-66
2021/11/03 12:27:33;;;;;;;6.23;4.93;;;;;;;13.10;56.02;96256.44;8350250;28;20551;-66
2021/11/03 12:31:53;;;;;;;5.67;5.17;;;;;;;13.08;55.46;96263.53;8349804;28;20251;-66
2021/11/03 12:36:05;;;;;;;5.90;4.83;;;;;;;13.05;56.04;96249.97;8349688;28;20286;-66
2021/11/03 12:40:32;;;;;;;5.30;4.80;;;;;;;13.04;55.84;96256.94;8349500;28;20539;-66
2021/11/03 12:44:39;;;;;;;4.80;4.40;;;;;;;13.12;55.71;96253.72;8349579;28;20237;-66
2021/11/03 12:48:46;;;;;;;5.20;4.70;;;;;;;13.08;55.55;96252.31;8349559;28;20239;-66
2021/11/03 12:52:54;;;;;;;5.83;3.80;;;;;;;13.30;54.93;96241.81;8349073;28;20244;-66
2021/11/03 12:57:00;;;;;;;4.63;4.07;;;;;;;12.98;56.78;96222.81;8349055;28;20242;-66
2021/11/03 13:01:06;;;;;;;4.30;3.90;;;;;;;12.96;56.52;96203.94;8349305;28;20236;-66
2021/11/03 13:05:19;;;;;;;4.27;3.93;;;;;;;13.04;56.50;96196.31;8348762;28;20247;-66
2021/11/03 13:09:47;;;;;;;3.90;3.17;;;;;;;13.33;55.73;96204.38;8348710;28;20239;-66
2021/11/03 13:13:52;;;;;;;4.60;3.40;;;;;;;13.19;55.76;96218.44;8349059;28;20554;-66
2021/11/03 13:17:58;;;;;;;3.23;2.93;;;;;;;13.27;55.75;96217.84;8348805;28;20236;-66
2021/11/03 13:22:04;;;;;;;7.97;3.50;;;;;;;13.14;56.15;96232.81;8348647;28;20414;-67
2021/11/03 13:26:12;;;;;;;3.40;3.10;;;;;;;12.94;55.90;96247.41;8348786;28;20538;-67
2021/11/03 13:30:23;;;;;;;6.23;3.10;;;;;;;13.06;55.62;96239.44;8348230;28;20236;-68
2021/11/03 13:34:27;;;;;;;4.27;3.70;;;;;;;12.69;56.57;96249.38;8348415;28;20232;-67
2021/11/03 13:38:33;;;;;;;3.37;3.07;;;;;;;12.66;56.50;96239.22;8348834;28;20240;-68
2021/11/03 13:42:43;;;;;;;4.30;2.80;;;;;;;12.74;55.80;96231.66;8348091;28;20246;-67
2021/11/03 13:46:49;;;;;;;4.57;2.83;;;;;;;12.86;55.89;96206.47;8347974;28;20232;-67
2021/11/03 13:51:26;;;;;;;4.20;2.80;;;;;;;12.92;56.40;96203.38;8347922;28;20236;-67
2021/11/03 13:55:52;;;;;;;3.17;2.40;;;;;;;12.97;55.69;96222.00;8343327;28;20232;-67
2021/11/03 13:59:59;;;;;;;3.63;2.43;;;;;;;13.03;55.27;96213.69;8347643;28;20235;-67
2021/11/03 14:04:09;;;;;;;3.93;2.03;;;;;;;13.24;55.46;96215.50;8347149;28;20596;-67
2021/11/03 14:08:24;;;;;;;4.63;2.40;;;;;;;13.36;54.84;96217.09;8347577;28;20232;-67
2021/11/03 14:12:42;;;;;;;2.40;2.13;;;;;;;13.35;55.08;96225.03;8347378;28;20519;-67
2021/11/03 14:16:51;;;;;;;2.87;2.37;;;;;;;13.34;54.70;96229.41;8347429;28;20236;-67
2021/11/03 14:20:54;;;;;;;3.40;2.43;;;;;;;13.22;55.01;96235.59;8347183;28;20235;-67
2021/11/03 14:24:58;;;;;;;3.83;2.23;;;;;;;13.32;54.87;96238.28;8347035;28;20239;-74
2021/11/03 14:29:04;;;;;;;5.37;2.50;;;;;;;12.99;54.57;96260.88;8347197;28;20431;-67
2021/11/03 14:33:18;;;;;;;2.20;2.00;;;;;;;13.21;55.27;96271.16;8347066;28;20236;-67
2021/11/03 14:37:21;;;;;;;2.40;2.20;;;;;;;13.30;54.88;96285.19;8346656;28;20228;-67
2021/11/03 14:41:26;;;;;;;2.50;2.07;;;;;;;13.33;54.83;96266.75;8347209;28;20242;-67
2021/11/03 14:45:29;;;;;;;3.03;2.40;;;;;;;13.32;54.69;96267.69;8346989;28;20244;-67
2021/11/03 14:49:35;;;;;;;6.45;4.80;;;;;;;13.78;53.80;96268.25;8344779;28;22963;-68
2021/11/03 14:53:38;;;;;;;5.83;3.73;;;;;;;13.36;55.08;96284.69;8346851;28;20244;-67
2021/11/03 14:57:44;;;;;;;6.00;4.27;;;;;;;13.35;54.95;96284.84;8346746;28;20421;-67
2021/11/03 15:01:50;;;;;;;6.93;3.60;;;;;;;13.30;56.59;96282.59;8346757;28;20239;-66
2021/11/03 15:05:57;;;;;;;4.27;2.80;;;;;;;13.82;53.85;96283.47;8345170;28;20437;-65
2021/11/03 15:09:59;;;;;;;5.30;2.93;;;;;;;13.42;56.00;96276.41;8346699;28;20247;-68
2021/11/03 15:14:02;;;;;;;8.30;4.70;;;;;;;13.20;56.29;96276.47;8346933;28;20236;-66
2021/11/03 15:18:06;;;;;;;8.90;6.10;;;;;;;13.10;57.03;96289.41;8349214;28;20239;-67
2021/11/03 15:22:11;;;;;;;8.10;6.90;;;;;;;13.11;57.83;96296.22;8351882;28;20236;-66
2021/11/03 15:26:14;;;;;;;7.20;4.27;;;;;;;13.01;58.18;96297.94;8351623;28;20232;-66
2021/11/03 15:30:17;;;;;;;9.43;5.87;;;;;;;12.98;58.09;96301.59;8351882;28;20243;-67
2021/11/03 15:34:23;;;;;;;3.80;3.23;;;;;;;12.96;58.07;96307.88;8351936;28;20244;-66
2021/11/03 15:38:30;;;;;;;5.27;4.60;;;;;;;12.78;58.61;96297.19;8351405;28;20243;-66
2021/11/03 15:42:33;;;;;;;7.07;4.80;;;;;;;12.84;58.34;96300.09;8351513;28;20232;-66
2021/11/03 15:46:40;;;;;;;5.90;4.40;;;;;;;12.86;58.37;96308.59;8351432;28;20244;-68
2021/11/03 15:50:45;;;;;;;8.20;6.17;;;;;;;12.80;58.17;96321.28;8351052;28;20596;-67
2021/11/03 15:54:50;;;;;;;7.63;6.83;;;;;;;12.63;58.49;96307.84;8351085;28;20803;-67
2021/11/03 15:58:53;;;;;;;6.83;5.60;;;;;;;12.76;58.46;96320.69;8350981;28;20236;-67
2021/11/03 16:02:59;;;;;;;7.93;5.97;;;;;;;12.59;58.62;96316.00;8350959;28;20243;-68
2021/11/03 16:07:02;;;;;;;9.63;7.73;;;;;;;12.64;58.38;96316.44;8342411;28;20558;-67
2021/11/03 16:11:06;;;;;;;8.83;6.43;;;;;;;12.67;58.45;96314.44;8347053;28;20224;-67
2021/11/03 16:15:10;;;;;;;11.70;10.50;;;;;;;12.64;58.59;96326.84;8350478;28;20248;-67
2021/11/03 16:19:13;;;;;;;28.20;25.10;;;;;;;12.62;58.66;96319.19;8350342;28;20239;-69
2021/11/03 16:23:25;;;;;;;15.63;10.33;;;;;;;12.57;58.73;96323.09;8350445;28;20232;-70
2021/11/03 16:27:31;;;;;;;9.23;8.30;;;;;;;12.56;58.78;96324.03;8350062;28;20228;-68
2021/11/03 16:31:34;;;;;;;7.50;6.77;;;;;;;12.52;58.46;96326.03;8350507;28;20239;-69
2021/11/03 16:35:37;;;;;;;13.03;10.47;;;;;;;12.46;58.74;96324.72;8350240;28;20255;-69
2021/11/03 16:39:41;;;;;;;19.63;17.63;;;;;;;12.46;58.69;96326.50;8350042;28;20236;-69
2021/11/03 16:43:45;;;;;;;16.83;14.57;;;;;;;12.60;58.50;96333.22;8349473;28;20243;-69
2021/11/03 16:47:52;;;;;;;16.03;14.43;;;;;;;12.42;58.54;96325.09;8350050;28;20558;-69
2021/11/03 16:51:57;;;;;;;16.83;12.60;;;;;;;12.28;59.44;96305.38;8349683;28;20259;-69
2021/11/03 16:56:01;;;;;;;11.67;8.73;;;;;;;12.41;59.19;96328.63;8348844;28;20417;-69
2021/11/03 17:00:24;;;;;;;8.50;7.70;;;;;;;12.46;58.53;96340.31;8348354;28;20251;-70
2021/11/03 17:04:28;;;;;;;8.57;7.77;;;;;;;12.48;58.69;96342.78;8346196;28;20315;-69
2021/11/03 17:08:33;;;;;;;11.23;8.30;;;;;;;12.43;58.98;96344.91;8347885;28;20240;-69
2021/11/03 17:12:56;;;;;;;14.37;10.63;;;;;;;12.37;58.69;96341.03;8346739;28;20231;-69
2021/11/03 17:17:01;;;;;;;16.37;11.83;;;;;;;12.38;58.71;96341.88;8347729;28;20228;-69
2021/11/03 17:21:04;;;;;;;16.13;10.83;;;;;;;12.11;59.77;96358.63;8347633;28;20232;-70
2021/11/03 17:25:08;;;;;;;10.90;9.80;;;;;;;12.11;59.35;96361.22;8347495;28;20228;-68
2021/11/03 17:29:18;;;;;;;12.20;10.60;;;;;;;12.23;59.09;96364.63;8347620;28;20270;-69
2021/11/03 17:33:24;;;;;;;13.13;11.23;;;;;;;12.24;59.11;96390.47;8346094;28;20231;-69
2021/11/03 17:37:28;;;;;;;11.20;9.30;;;;;;;12.29;58.88;96390.94;8348092;28;20247;-71
2021/11/03 17:41:33;;;;;;;10.50;9.33;;;;;;;12.41;58.95;96394.34;8346366;28;20221;-71
2021/11/03 17:45:36;;;;;;;18.57;14.47;;;;;;;12.42;58.94;96398.63;8347757;28;20309;-71
2021/11/03 17:49:42;;;;;;;11.30;10.10;;;;;;;12.46;58.67;96407.00;8347918;28;20235;-71
2021/11/03 17:53:45;;;;;;;15.73;13.23;;;;;;;12.33;59.18;96397.53;8347787;28;20513;-71
2021/11/03 17:57:51;;;;;;;10.27;9.20;;;;;;;12.41;58.65;96396.94;8347931;28;20244;-72
2021/11/03 18:01:56;;;;;;;9.27;8.10;;;;;;;12.42;59.13;96403.81;8346811;28;20228;-70
2021/11/03 18:06:00;;;;;;;10.53;8.07;;;;;;;12.37;59.11;96411.13;8346726;28;20255;-71
2021/11/03 18:10:04;;;;;;;10.33;8.47;;;;;;;12.41;59.08;96409.94;8346717;28;20247;-72
2021/11/03 18:14:17;;;;;;;14.10;10.23;;;;;;;12.39;59.15;96419.59;8347510;28;20417;-69
2021/11/03 18:18:30;;;;;;;11.93;10.67;;;;;;;12.38;59.52;96396.38;8337675;28;20223;-71
2021/11/03 18:22:35;;;;;;;12.70;8.90;;;;;;;12.33;59.73;96412.28;8344651;28;20241;-71
2021/11/03 18:26:41;;;;;;;12.37;9.53;;;;;;;12.39;59.82;96404.03;8347115;28;20240;-71
2021/11/03 18:30:47;;;;;;;14.43;10.73;;;;;;;12.40;59.26;96402.28;8347595;28;20243;-70
2021/11/03 18:34:51;;;;;;;24.00;18.37;;;;;;;12.35;60.36;96413.00;8347077;28;20413;-71
2021/11/03 18:38:55;;;;;;;11.80;10.60;;;;;;;12.35;60.24;96410.41;8345855;28;20236;-70
2021/11/03 18:42:59;;;;;;;14.77;13.27;;;;;;;12.37;60.14;96398.13;8346145;28;20239;-70
2021/11/03 18:47:05;;;;;;;9.03;8.13;;;;;;;12.33;60.43;96404.50;8346625;28;20236;-70
2021/11/03 18:51:16;;;;;;;11.30;8.70;;;;;;;12.33;60.28;96405.31;8346682;28;20294;-70
2021/11/03 18:55:23;;;;;;;9.60;7.97;;;;;;;12.36;60.64;96406.88;8352364;28;20236;-70
2021/11/03 18:59:26;;;;;;;13.83;11.23;;;;;;;12.25;60.53;96420.66;8352991;28;20433;-70
2021/11/03 19:03:30;;;;;;;13.37;11.83;;;;;;;12.14;61.07;96410.25;8350707;28;20539;-70
2021/11/03 19:07:34;;;;;;;11.53;8.33;;;;;;;12.19;61.25;96415.94;8351811;28;20432;-71
2021/11/03 19:11:39;;;;;;;39.80;9.60;;;;;;;13.21;72.47;96415.88;8352485;28;20414;-65
2021/11/03 19:15:43;;;;;;;18.23;10.13;;;;;;;14.10;61.81;96395.66;8351480;28;20236;-66